Time;durP1;ratioP1;P1;durP2;ratioP2;P2;SDS_P1;SDS_P2;PMS_P1;PMS_P2;Temp;Humidity;BMP_temperature;BMP_pressure;BME280_temperature;BME280_humidity;BME280_pressure;Samples;Min_cycle;Max_cycle;Signal;HPM_P1;HPM_P2
2024/01/07 00:04:14;;;;;;;5.15;2.00;;;;;;;18.97;29.62;101581.06;16109734;19;131494;-64
2024/01/07 00:09:36;;;;;;;5.10;1.95;;;;;;;18.90;29.53;101591.41;16113098;19;130239;-63
2024/01/07 00:14:58;;;;;;;2.75;1.90;;;;;;;18.84;29.44;101593.19;16107522;19;130451;-63
2024/01/07 00:20:20;;;;;;;2.78;2.15;;;;;;;18.79;29.41;101595.81;16112418;19;131058;-63
2024/01/07 00:25:41;;;;;;;3.42;2.10;;;;;;;18.72;29.00;101609.72;16113636;19;130214;-63
2024/01/07 00:31:04;;;;;;;3.33;2.15;;;;;;;18.68;29.00;101608.53;16115619;19;130472;-63
2024/01/07 00:36:26;;;;;;;3.70;2.40;;;;;;;18.63;28.92;101611.13;16110686;19;129453;-63
2024/01/07 00:41:48;;;;;;;4.50;2.50;;;;;;;18.58;29.21;101610.97;16113271;19;131099;-63
2024/01/07 00:47:10;;;;;;;4.22;3.05;;;;;;;18.53;28.92;101619.94;16111041;19;132148;-63
2024/01/07 00:52:32;;;;;;;3.17;2.30;;;;;;;18.48;29.27;101619.81;16108013;19;129379;-63
2024/01/07 00:57:53;;;;;;;3.55;2.80;;;;;;;18.45;29.10;101629.44;16107398;19;130430;-63
2024/01/07 01:03:15;;;;;;;3.53;3.10;;;;;;;18.42;29.00;101626.25;16104727;19;130515;-63
2024/01/07 01:08:37;;;;;;;5.25;3.08;;;;;;;18.36;29.23;101625.19;16108547;19;131606;-63
2024/01/07 01:13:59;;;;;;;4.72;2.85;;;;;;;18.33;28.85;101625.69;16108104;19;129897;-63
2024/01/07 01:19:21;;;;;;;4.75;3.40;;;;;;;18.29;28.97;101639.13;16107730;19;129562;-63
2024/01/07 01:24:45;;;;;;;4.65;3.30;;;;;;;18.26;29.03;101630.41;16100539;19;130823;-63
2024/01/07 01:30:08;;;;;;;4.22;3.20;;;;;;;18.25;28.99;101642.56;16106476;19;131127;-63
2024/01/07 01:35:30;;;;;;;4.45;3.58;;;;;;;18.23;29.39;101644.72;16107222;19;130746;-63
2024/01/07 01:40:53;;;;;;;4.40;3.17;;;;;;;18.21;29.22;101649.66;16103474;19;132340;-63
2024/01/07 01:46:15;;;;;;;4.20;3.45;;;;;;;18.19;29.20;101662.88;16102703;19;131535;-63
2024/01/07 01:51:37;;;;;;;4.25;3.28;;;;;;;18.16;29.03;101664.16;16104822;19;130810;-63
2024/01/07 01:56:59;;;;;;;4.05;3.40;;;;;;;18.15;29.27;101670.78;16104072;19;129380;-63
2024/01/07 02:02:21;;;;;;;4.50;3.90;;;;;;;18.11;29.28;101672.31;16102812;19;129601;-63
2024/01/07 02:07:43;;;;;;;4.57;3.60;;;;;;;18.08;29.08;101673.59;16103927;19;130896;-63
2024/01/07 02:13:05;;;;;;;4.65;3.70;;;;;;;18.06;29.35;101675.75;16102408;19;131198;-63
2024/01/07 02:18:27;;;;;;;4.07;3.22;;;;;;;18.05;29.16;101679.59;16102332;19;129714;-63
2024/01/07 02:23:49;;;;;;;4.07;3.20;;;;;;;18.04;29.29;101683.44;16098620;19;129909;-63
2024/01/07 02:29:11;;;;;;;4.93;3.28;;;;;;;18.02;29.51;101693.88;16103894;19;131335;-63
2024/01/07 02:34:33;;;;;;;4.85;3.50;;;;;;;17.99;29.33;101692.41;16101649;19;129833;-63
2024/01/07 02:39:55;;;;;;;4.95;3.25;;;;;;;17.97;29.57;101699.25;16103558;19;130644;-62
2024/01/07 02:45:22;;;;;;;4.32;3.17;;;;;;;17.96;29.55;101700.31;16101894;19;130781;-63
2024/01/07 02:50:44;;;;;;;4.85;3.60;;;;;;;17.94;29.30;101699.69;16093309;19;130145;-63
2024/01/07 02:56:08;;;;;;;4.95;3.53;;;;;;;17.93;29.34;101709.06;16107597;19;130104;-63
2024/01/07 03:01:30;;;;;;;4.78;3.28;;;;;;;17.90;29.47;101709.50;16106598;19;129833;-63
2024/01/07 03:06:52;;;;;;;4.85;3.78;;;;;;;17.87;29.42;101710.78;16106273;19;129430;-62
2024/01/07 03:12:17;;;;;;;4.15;3.40;;;;;;;17.87;29.76;101715.47;16106222;19;131318;-63
2024/01/07 03:17:39;;;;;;;5.13;3.90;;;;;;;17.83;29.70;101715.94;16103894;19;130836;-62
2024/01/07 03:23:02;;;;;;;4.97;3.50;;;;;;;17.80;29.77;101721.91;16115773;19;130931;-63
2024/01/07 03:28:24;;;;;;;5.25;3.72;;;;;;;17.80;29.72;101735.75;16118585;19;129853;-63
2024/01/07 03:33:46;;;;;;;3.97;3.13;;;;;;;17.78;29.72;101735.13;16119914;19;131593;-63
2024/01/07 03:39:08;;;;;;;5.47;4.20;;;;;;;17.77;29.34;101736.19;16118430;19;129554;-63
2024/01/07 03:44:30;;;;;;;4.65;3.83;;;;;;;17.74;29.79;101747.69;16120550;19;131521;-63
2024/01/07 03:49:52;;;;;;;4.50;3.83;;;;;;;17.72;29.72;101747.09;16116025;19;129562;-62
2024/01/07 03:55:14;;;;;;;4.68;3.78;;;;;;;17.69;29.47;101750.28;16113395;19;130123;-63
2024/01/07 04:00:36;;;;;;;5.05;3.70;;;;;;;17.67;29.66;101758.78;16115145;19;130181;-63
2024/01/07 04:05:58;;;;;;;4.88;3.95;;;;;;;17.67;29.46;101764.31;16119267;19;129313;-63
2024/01/07 04:11:20;;;;;;;4.70;3.80;;;;;;;17.66;29.76;101773.69;16113236;19;129542;-63
2024/01/07 04:16:42;;;;;;;4.15;3.58;;;;;;;17.64;29.77;101777.75;16111959;19;130045;-63
2024/01/07 04:22:04;;;;;;;4.32;3.85;;;;;;;17.61;29.65;101778.19;16114132;19;129570;-62
2024/01/07 04:27:26;;;;;;;5.28;4.10;;;;;;;17.59;29.36;101774.81;16116761;19;130864;-63
2024/01/07 04:32:48;;;;;;;4.93;3.63;;;;;;;17.58;29.79;101778.63;16112339;19;131895;-63
2024/01/07 04:38:10;;;;;;;4.68;3.55;;;;;;;17.55;29.44;101777.13;16114552;19;131004;-63
2024/01/07 04:43:33;;;;;;;4.93;3.78;;;;;;;17.55;29.67;101779.91;16114142;19;130969;-63
2024/01/07 04:48:55;;;;;;;4.28;3.50;;;;;;;17.54;29.59;101790.13;16109299;19;130666;-63
2024/01/07 04:54:18;;;;;;;5.25;4.10;;;;;;;17.53;29.60;101793.94;16110044;19;130206;-63
2024/01/07 04:59:40;;;;;;;5.22;3.85;;;;;;;17.52;29.84;101795.00;16111606;19;129392;-63
2024/01/07 05:05:02;;;;;;;6.88;4.15;;;;;;;17.49;29.54;101791.81;16107971;19;129723;-63
2024/01/07 05:10:24;;;;;;;7.10;4.03;;;;;;;17.47;29.43;101805.88;16111093;19;131879;-63
2024/01/07 05:15:46;;;;;;;4.95;3.78;;;;;;;17.45;29.73;101812.69;16105446;19;131226;-63
2024/01/07 05:21:08;;;;;;;5.40;3.80;;;;;;;17.42;29.88;101815.88;16106079;19;131301;-63
2024/01/07 05:26:30;;;;;;;6.00;4.43;;;;;;;17.43;29.69;101820.34;16109694;19;131663;-63
2024/01/07 05:31:52;;;;;;;4.97;3.92;;;;;;;17.41;29.54;101828.88;16113092;19;130038;-63
2024/01/07 05:37:14;;;;;;;6.90;4.53;;;;;;;17.40;29.66;101838.22;16111620;19;130881;-63
2024/01/07 05:42:36;;;;;;;6.00;4.50;;;;;;;17.38;29.53;101843.13;16107030;19;129923;-63
2024/01/07 05:47:58;;;;;;;6.90;4.70;;;;;;;17.36;29.92;101848.00;16111384;19;130632;-63
2024/01/07 05:53:20;;;;;;;6.50;4.97;;;;;;;17.36;29.97;101859.06;16108770;19;130613;-63
2024/01/07 05:58:42;;;;;;;7.38;4.85;;;;;;;17.35;29.94;101862.94;16108356;19;130491;-63
2024/01/07 06:04:04;;;;;;;7.28;4.72;;;;;;;17.34;30.05;101872.28;16101586;19;130504;-63
2024/01/07 06:09:26;;;;;;;6.20;4.57;;;;;;;17.36;30.03;101870.13;16108134;19;130558;-63
2024/01/07 06:14:48;;;;;;;5.53;4.05;;;;;;;17.48;29.63;101873.13;16101580;19;130784;-63
2024/01/07 06:20:11;;;;;;;6.30;4.45;;;;;;;17.65;29.90;101881.84;16108809;19;130347;-63
2024/01/07 06:25:33;;;;;;;4.90;4.00;;;;;;;17.83;29.80;101895.84;16108445;19;130744;-63
2024/01/07 06:30:54;;;;;;;6.63;3.97;;;;;;;18.02;29.91;101900.69;16109661;19;134474;-65
2024/01/07 06:36:20;;;;;;;6.65;4.05;;;;;;;18.21;29.77;101912.75;16108413;19;130899;-61
2024/01/07 06:41:42;;;;;;;10.52;4.03;;;;;;;18.37;29.79;101915.00;16107102;19;129280;-62
2024/01/07 06:47:04;;;;;;;6.65;3.70;;;;;;;18.46;29.37;101923.97;16107919;19;129647;-62
2024/01/07 06:52:26;;;;;;;6.68;4.03;;;;;;;18.56;29.54;101935.41;16107176;19;130669;-63
2024/01/07 06:57:48;;;;;;;8.55;3.33;;;;;;;18.64;29.40;101939.03;16106460;19;131265;-62
2024/01/07 07:03:11;;;;;;;6.60;4.32;;;;;;;18.71;29.58;101948.97;16111260;19;131330;-62
2024/01/07 07:08:33;;;;;;;5.90;4.07;;;;;;;18.79;29.15;101950.63;16107178;19;130510;-62
2024/01/07 07:13:55;;;;;;;5.78;3.30;;;;;;;18.89;29.56;101959.31;16103493;19;131110;-64
2024/01/07 07:19:17;;;;;;;5.20;3.63;;;;;;;18.99;29.54;101969.09;16105076;19;129671;-65
2024/01/07 07:24:41;;;;;;;10.02;4.80;;;;;;;19.03;29.21;101975.88;16101077;19;129611;-62
2024/01/07 07:30:05;;;;;;;9.30;4.47;;;;;;;18.99;28.84;101983.78;16102379;19;131114;-61
2024/01/07 07:35:28;;;;;;;8.07;4.85;;;;;;;18.93;28.91;101990.25;16105287;19;129490;-63
2024/01/07 07:40:52;;;;;;;17.00;4.22;;;;;;;18.89;29.05;101988.97;16103085;19;134679;-67
2024/01/07 07:46:16;;;;;;;22.83;3.90;;;;;;;18.86;29.35;102000.50;16102197;19;134674;-63
2024/01/07 07:51:38;;;;;;;9.52;3.95;;;;;;;18.83;30.26;102023.16;16100074;19;129392;-61
2024/01/07 07:57:00;;;;;;;15.45;4.18;;;;;;;18.79;29.99;102021.88;16097546;19;130322;-65
2024/01/07 08:02:22;;;;;;;18.65;5.07;;;;;;;18.77;30.81;102020.19;16095605;19;129569;-66
2024/01/07 08:07:44;;;;;;;58.08;5.90;;;;;;;18.77;30.66;102031.25;16108421;19;131336;-64
2024/01/07 08:13:06;;;;;;;57.95;5.45;;;;;;;18.82;31.15;102038.09;16116391;19;129977;-65
2024/01/07 08:18:29;;;;;;;61.80;5.13;;;;;;;18.87;31.53;102041.03;16108933;19;130038;-59
2024/01/07 08:23:51;;;;;;;87.68;8.95;;;;;;;18.95;31.55;102042.69;16115961;19;131869;-62
2024/01/07 08:29:13;;;;;;;72.75;6.07;;;;;;;19.04;31.62;102063.53;16111166;19;130888;-63
2024/01/07 08:34:35;;;;;;;52.08;5.00;;;;;;;19.11;31.29;102069.06;16112553;19;135582;-62
2024/01/07 08:39:57;;;;;;;46.22;5.00;;;;;;;19.10;30.80;102078.44;16109833;19;131058;-62
2024/01/07 08:45:19;;;;;;;40.33;5.28;;;;;;;19.12;30.79;102082.72;16113405;19;130862;-61
2024/01/07 08:50:41;;;;;;;25.40;4.53;;;;;;;19.16;30.78;102085.91;16105848;19;130227;-63
2024/01/07 08:56:03;;;;;;;36.47;4.45;;;;;;;19.18;30.69;102090.16;16110038;19;129910;-66
2024/01/07 09:01:25;;;;;;;13.32;5.28;;;;;;;19.15;29.48;102098.06;16106375;19;131081;-64
2024/01/07 09:06:47;;;;;;;19.95;3.92;;;;;;;19.14;29.75;102097.19;16108369;19;129879;-63
2024/01/07 09:12:09;;;;;;;20.70;4.25;;;;;;;19.22;29.32;102115.53;16109889;19;129517;-63
2024/01/07 09:17:31;;;;;;;14.70;3.70;;;;;;;19.36;29.17;102122.72;16107444;19;130671;-63
2024/01/07 09:22:53;;;;;;;12.60;3.67;;;;;;;19.51;29.17;102129.91;16106979;19;129774;-64
2024/01/07 09:28:15;;;;;;;14.23;3.40;;;;;;;19.81;28.91;102140.41;16105892;19;131348;-62
2024/01/07 09:33:37;;;;;;;7.18;2.60;;;;;;;20.08;28.46;102134.63;16107619;19;129862;-64
2024/01/07 09:38:59;;;;;;;14.20;3.50;;;;;;;20.27;28.64;102155.84;16105118;19;130340;-63
2024/01/07 09:44:21;;;;;;;7.20;3.60;;;;;;;20.34;28.00;102154.94;16106229;19;130822;-63
2024/01/07 09:49:44;;;;;;;8.18;3.42;;;;;;;20.35;28.08;102167.75;16106060;19;130169;-63
2024/01/07 09:55:09;;;;;;;10.50;2.90;;;;;;;20.30;27.97;102171.22;16107973;19;130288;-63
2024/01/07 10:00:32;;;;;;;11.48;2.78;;;;;;;20.20;28.00;102180.06;16112307;19;129464;-64
2024/01/07 10:05:54;;;;;;;7.75;3.15;;;;;;;20.10;28.17;102188.91;16109874;19;130372;-63
2024/01/07 10:11:16;;;;;;;7.28;2.72;;;;;;;19.98;28.01;102188.75;16110358;19;131748;-63
2024/01/07 10:16:38;;;;;;;6.65;2.78;;;;;;;19.86;27.89;102196.09;16105908;19;130403;-62
2024/01/07 10:22:04;;;;;;;4.18;2.72;;;;;;;19.74;27.75;102195.09;16105640;19;130255;-63
2024/01/07 10:27:26;;;;;;;6.60;3.40;;;;;;;19.59;27.53;102193.47;16105883;19;131189;-63
2024/01/07 10:32:48;;;;;;;4.63;3.15;;;;;;;19.46;27.77;102205.50;16102112;19;129454;-62
2024/01/07 10:38:10;;;;;;;6.05;2.83;;;;;;;19.36;27.95;102197.66;16104259;19;129435;-63
2024/01/07 10:43:36;;;;;;;9.13;3.38;;;;;;;19.27;27.31;102193.44;16101615;19;132990;-61
2024/01/07 10:49:12;;;;;;;7.43;3.53;;;;;;;19.22;27.07;102205.19;16098615;19;129893;-62
2024/01/07 10:54:36;;;;;;;9.88;3.20;;;;;;;19.20;27.15;102200.91;16105896;19;135838;-62
2024/01/07 11:00:00;;;;;;;10.43;3.75;;;;;;;19.28;27.19;102209.00;16104721;19;130828;-62
2024/01/07 11:05:39;;;;;;;16.38;3.28;;;;;;;19.38;27.41;102208.56;16100841;19;131123;-63
2024/01/07 11:11:09;;;;;;;13.82;2.80;;;;;;;19.50;27.61;102222.56;16098890;19;130240;-61
2024/01/07 11:16:44;;;;;;;13.93;3.35;;;;;;;19.63;28.04;102225.28;16102065;19;129710;-68
2024/01/07 11:22:23;;;;;;;12.93;3.42;;;;;;;19.75;27.44;102219.03;16099137;19;131035;-60
2024/01/07 11:27:45;;;;;;;27.30;7.95;;;;;;;19.78;28.12;102226.91;16099135;19;131225;-59
2024/01/07 11:33:12;;;;;;;25.83;9.32;;;;;;;19.86;27.51;102221.09;16100841;19;129340;-60
2024/01/07 11:38:37;;;;;;;17.73;8.63;;;;;;;19.90;27.71;102211.25;16099838;19;129497;-60
2024/01/07 11:44:00;;;;;;;20.88;7.65;;;;;;;19.97;27.60;102219.53;16106277;19;131113;-60
2024/01/07 11:49:27;;;;;;;23.52;9.60;;;;;;;20.02;28.58;102219.72;16116446;19;130633;-59
2024/01/07 11:54:49;;;;;;;23.52;7.50;;;;;;;19.96;28.15;102221.44;16119415;19;129281;-60
2024/01/07 12:00:12;;;;;;;15.50;7.63;;;;;;;19.92;27.92;102225.78;16116230;19;131894;-60
2024/01/07 12:05:34;;;;;;;19.23;7.70;;;;;;;19.86;28.11;102220.25;16120844;19;131437;-60
2024/01/07 12:10:56;;;;;;;9.95;6.18;;;;;;;19.79;27.96;102229.47;16116283;19;130307;-61
2024/01/07 12:16:18;;;;;;;21.42;6.10;;;;;;;19.76;28.36;102220.72;16118132;19;130940;-60
2024/01/07 12:21:41;;;;;;;11.63;5.35;;;;;;;19.69;28.41;102226.31;16113330;19;130932;-61
2024/01/07 12:27:06;;;;;;;12.55;5.55;;;;;;;19.65;28.08;102231.47;16111231;19;129730;-60
2024/01/07 12:32:29;;;;;;;;;;;;;;;19.57;28.00;102223.38;16114242;19;129627;-60
2024/01/07 12:37:52;;;;;;;11.25;4.32;;;;;;;19.55;27.98;102233.88;16110177;19;130075;-61
2024/01/07 12:43:14;;;;;;;8.15;4.10;;;;;;;19.54;28.63;102234.94;16117871;19;129587;-56
2024/01/07 12:48:36;;;;;;;9.73;4.32;;;;;;;19.56;28.43;102231.94;16110792;19;130139;-64
2024/01/07 12:54:02;;;;;;;17.20;4.30;;;;;;;19.58;28.55;102230.63;16109860;19;131322;-65
2024/01/07 12:59:24;;;;;;;12.35;3.53;;;;;;;19.61;28.70;102235.75;16117129;19;131337;-65
2024/01/07 13:04:46;;;;;;;20.17;3.78;;;;;;;19.59;28.77;102243.44;16106285;19;129955;-60
2024/01/07 13:10:09;;;;;;;13.80;3.78;;;;;;;19.58;28.54;102249.22;16113838;19;131403;-61
2024/01/07 13:15:31;;;;;;;33.55;3.90;;;;;;;19.63;28.73;102253.03;16112071;19;130803;-60
2024/01/07 13:20:54;;;;;;;49.03;5.75;;;;;;;19.74;28.79;102265.41;16109074;19;129650;-60
2024/01/07 13:26:16;;;;;;;37.08;4.90;;;;;;;19.75;29.04;102275.44;16108150;19;129459;-60
2024/01/07 13:31:38;;;;;;;79.35;9.30;;;;;;;19.79;29.26;102275.84;16105929;19;129703;-70
2024/01/07 13:37:00;;;;;;;68.35;7.63;;;;;;;19.80;29.52;102291.41;16105937;19;131229;-77
2024/01/07 13:42:22;;;;;;;47.95;6.32;;;;;;;19.74;29.76;102283.97;16113420;19;131604;-69
2024/01/07 13:47:43;;;;;;;38.17;6.53;;;;;;;19.70;29.59;102283.56;16113552;19;129565;-76
2024/01/07 13:53:05;;;;;;;32.78;5.60;;;;;;;19.59;29.65;102282.31;16111364;19;130146;-71
2024/01/07 13:58:27;;;;;;;29.10;5.00;;;;;;;19.53;29.22;102288.75;16111801;19;130182;-69
2024/01/07 14:03:49;;;;;;;41.28;5.47;;;;;;;19.53;29.49;102299.84;16111730;19;131479;-78
2024/01/07 14:09:11;;;;;;;42.10;5.78;;;;;;;19.50;29.63;102303.94;16110833;19;130881;-86
2024/01/07 14:14:33;;;;;;;39.75;5.00;;;;;;;19.54;29.62;102323.78;16109589;19;129958;-70
2024/01/07 14:19:55;;;;;;;29.33;5.13;;;;;;;19.57;29.63;102319.69;16109489;19;130552;-73
2024/01/07 14:25:17;;;;;;;21.55;4.28;;;;;;;19.59;29.37;102329.50;16110749;19;131743;-74
2024/01/07 14:30:39;;;;;;;20.20;3.80;;;;;;;19.64;29.66;102338.03;16109283;19;131154;-78
2024/01/07 14:36:03;;;;;;;14.80;4.00;;;;;;;19.71;29.30;102354.69;16110103;19;130867;-74
2024/01/07 14:41:25;;;;;;;19.10;2.97;;;;;;;19.79;29.04;102365.53;16111984;19;129842;-73
2024/01/07 14:46:48;;;;;;;17.02;3.58;;;;;;;19.86;28.72;102370.22;16110567;19;130255;-82
2024/01/07 14:52:09;;;;;;;12.18;2.30;;;;;;;19.92;28.87;102370.19;16111668;19;131712;-75
2024/01/07 14:57:31;;;;;;;8.65;2.90;;;;;;;19.93;28.35;102374.69;16106132;19;130048;-67
2024/01/07 15:02:53;;;;;;;17.23;2.97;;;;;;;19.93;28.28;102383.00;16107377;19;131352;-68
2024/01/07 15:08:15;;;;;;;14.05;2.50;;;;;;;19.91;28.53;102392.63;16108504;19;130562;-66
2024/01/07 15:13:39;;;;;;;19.83;2.70;;;;;;;19.87;28.35;102399.69;16107830;19;130263;-69
2024/01/07 15:19:02;;;;;;;10.45;2.63;;;;;;;19.83;28.29;102404.81;16125258;19;130006;-67
2024/01/07 15:24:24;;;;;;;11.10;2.50;;;;;;;19.79;28.21;102423.00;16123192;19;130467;-63
2024/01/07 15:29:46;;;;;;;11.85;2.20;;;;;;;19.73;27.97;102432.19;16124367;19;131717;-64
2024/01/07 15:35:08;;;;;;;7.75;2.15;;;;;;;19.64;27.92;102440.75;16124967;19;129856;-63
2024/01/07 15:40:31;;;;;;;15.35;2.45;;;;;;;19.56;28.00;102432.66;16122520;19;130466;-69
2024/01/07 15:45:52;;;;;;;10.93;1.75;;;;;;;19.50;27.97;102439.94;16122554;19;130560;-64
2024/01/07 15:51:15;;;;;;;10.00;1.80;;;;;;;19.46;28.07;102452.53;16121434;19;130581;-66
2024/01/07 15:56:37;;;;;;;5.28;1.63;;;;;;;19.48;28.13;102457.84;16119292;19;129715;-75
2024/01/07 16:01:59;;;;;;;4.30;1.67;;;;;;;19.47;27.56;102470.91;16121058;19;129765;-66
2024/01/07 16:07:21;;;;;;;19.63;1.80;;;;;;;19.45;27.17;102484.13;16121642;19;130383;-70
2024/01/07 16:12:43;;;;;;;7.05;1.88;;;;;;;19.42;27.40;102476.22;16120247;19;130638;-71
2024/01/07 16:18:05;;;;;;;8.88;1.85;;;;;;;19.44;27.24;102490.75;16120515;19;129498;-61
2024/01/07 16:23:29;;;;;;;9.25;1.40;;;;;;;19.49;27.17;102506.75;16117576;19;130285;-61
2024/01/07 16:28:52;;;;;;;8.38;2.85;;;;;;;19.59;26.81;102515.50;16115357;19;131351;-62
2024/01/07 16:34:14;;;;;;;11.85;3.25;;;;;;;19.71;26.37;102512.94;16111403;19;129665;-61
2024/01/07 16:39:37;;;;;;;8.85;3.10;;;;;;;19.83;26.19;102535.34;16115992;19;130253;-61
2024/01/07 16:44:59;;;;;;;8.68;3.92;;;;;;;19.96;26.02;102548.38;16113093;19;129714;-61
2024/01/07 16:50:21;;;;;;;7.65;4.28;;;;;;;20.09;25.68;102547.53;16113790;19;130064;-62
2024/01/07 16:55:47;;;;;;;9.77;3.95;;;;;;;20.17;25.52;102555.66;16110739;19;129455;-67
2024/01/07 17:01:09;;;;;;;8.13;3.72;;;;;;;20.19;25.74;102559.03;16112448;19;129597;-67
2024/01/07 17:06:32;;;;;;;11.27;9.15;;;;;;;20.18;25.79;102574.03;16117388;19;129812;-63
2024/01/07 17:11:54;;;;;;;23.95;15.30;;;;;;;20.16;26.03;102589.19;16113593;19;130672;-65
2024/01/07 17:17:16;;;;;;;22.35;16.67;;;;;;;20.12;26.44;102594.31;16108401;19;130892;-65
2024/01/07 17:22:38;;;;;;;18.15;13.13;;;;;;;20.10;26.62;102590.91;16114383;19;130127;-70
2024/01/07 17:28:00;;;;;;;13.50;12.05;;;;;;;20.09;26.49;102601.19;16113995;19;131818;-62
2024/01/07 17:33:23;;;;;;;15.38;10.85;;;;;;;20.02;26.66;102600.31;16113565;19;129786;-66
2024/01/07 17:38:46;;;;;;;22.17;10.30;;;;;;;19.96;26.88;102602.00;16113098;19;129820;-68
2024/01/07 17:44:08;;;;;;;22.88;10.55;;;;;;;19.88;26.61;102607.78;16120342;19;130576;-72
2024/01/07 17:49:30;;;;;;;13.85;9.15;;;;;;;19.79;27.13;102612.69;16115298;19;134472;-74
2024/01/07 17:54:56;;;;;;;21.88;8.77;;;;;;;19.73;27.31;102623.78;16108326;19;129464;-70
2024/01/07 18:00:18;;;;;;;26.00;8.55;;;;;;;19.62;27.03;102620.59;16115865;19;129406;-68
2024/01/07 18:05:40;;;;;;;22.90;7.82;;;;;;;19.61;27.59;102623.59;16111958;19;129647;-65
2024/01/07 18:11:04;;;;;;;16.48;7.10;;;;;;;19.68;27.28;102628.06;16111906;19;130913;-70
2024/01/07 18:16:26;;;;;;;13.45;6.15;;;;;;;19.72;26.79;102633.19;16106773;19;130010;-69
2024/01/07 18:21:48;;;;;;;16.65;4.97;;;;;;;19.70;27.05;102638.97;16112693;19;130661;-70
2024/01/07 18:27:10;;;;;;;23.15;4.28;;;;;;;19.77;27.04;102644.53;16110723;19;129624;-69
2024/01/07 18:32:34;;;;;;;15.75;4.68;;;;;;;19.81;27.00;102654.16;16095082;19;130721;-71
2024/01/07 18:37:56;;;;;;;14.02;4.20;;;;;;;19.82;27.09;102666.94;16104263;19;129926;-69
2024/01/07 18:43:20;;;;;;;10.45;3.22;;;;;;;19.81;26.88;102673.59;16103664;19;130020;-69
2024/01/07 18:48:42;;;;;;;17.63;3.30;;;;;;;19.88;26.68;102679.16;16101543;19;129718;-69
2024/01/07 18:54:07;;;;;;;5.60;2.30;;;;;;;20.00;26.45;102683.00;16109202;19;130800;-69
2024/01/07 18:59:30;;;;;;;9.00;2.30;;;;;;;20.16;26.49;102692.88;16110157;19;129407;-69
2024/01/07 19:04:52;;;;;;;6.80;2.25;;;;;;;20.32;26.07;102699.03;16109067;19;130966;-69
2024/01/07 19:10:14;;;;;;;12.38;2.00;;;;;;;20.42;26.32;102696.72;16110260;19;131375;-69
2024/01/07 19:15:37;;;;;;;7.20;1.75;;;;;;;20.52;26.29;102702.69;16106534;19;130478;-69
2024/01/07 19:20:59;;;;;;;10.40;1.70;;;;;;;20.59;26.14;102706.28;16107536;19;129567;-69
2024/01/07 19:26:26;;;;;;;4.35;1.60;;;;;;;20.63;26.01;102708.66;16103284;19;129630;-70
2024/01/07 19:31:48;;;;;;;4.82;1.45;;;;;;;20.58;25.59;102721.25;16105446;19;130794;-69
2024/01/07 19:37:13;;;;;;;2.50;1.42;;;;;;;20.54;25.95;102708.88;16105363;19;130947;-70
2024/01/07 19:42:35;;;;;;;7.30;1.83;;;;;;;20.48;25.89;102717.22;16106818;19;131004;-70
2024/01/07 19:47:58;;;;;;;5.00;1.30;;;;;;;20.37;25.48;102721.50;16105576;19;129608;-70
2024/01/07 19:53:20;;;;;;;2.58;1.35;;;;;;;20.32;25.83;102724.94;16105389;19;129511;-70
2024/01/07 19:58:51;;;;;;;1.88;1.30;;;;;;;20.26;25.83;102729.41;16098048;19;130210;-70
2024/01/07 20:04:14;;;;;;;2.38;1.25;;;;;;;20.24;25.78;102726.00;16111576;19;131482;-68
2024/01/07 20:09:36;;;;;;;3.40;1.02;;;;;;;20.37;25.70;102735.41;16119664;19;131507;-74
2024/01/07 20:14:59;;;;;;;5.63;1.40;;;;;;;20.53;25.19;102734.97;16115459;19;129798;-77
2024/01/07 20:20:21;;;;;;;23.27;2.45;;;;;;;20.66;25.06;102741.59;16124044;19;129520;-71
2024/01/07 20:25:46;;;;;;;7.95;1.88;;;;;;;20.63;25.20;102745.63;16120295;19;129436;-69
2024/01/07 20:31:11;;;;;;;13.82;2.05;;;;;;;20.55;24.22;102752.31;16121963;19;130328;-65
2024/01/07 20:36:33;;;;;;;11.27;1.52;;;;;;;20.37;24.44;102757.63;16118672;19;130311;-69
2024/01/07 20:41:55;;;;;;;13.82;1.67;;;;;;;20.27;24.66;102756.16;16125113;19;134159;-69
2024/01/07 20:47:17;;;;;;;12.50;1.60;;;;;;;20.29;24.95;102754.00;16130779;19;130552;-66
2024/01/07 20:52:39;;;;;;;13.15;1.20;;;;;;;20.41;24.74;102750.59;16117764;19;129534;-62
2024/01/07 20:58:02;;;;;;;11.98;1.80;;;;;;;20.62;25.08;102751.44;16116953;19;129464;-72
2024/01/07 21:03:25;;;;;;;8.38;1.42;;;;;;;20.90;24.76;102760.41;16120110;19;130912;-70
2024/01/07 21:08:48;;;;;;;7.53;1.52;;;;;;;21.20;24.68;102772.97;16115304;19;129758;-74
2024/01/07 21:14:10;;;;;;;3.78;1.20;;;;;;;21.35;24.55;102767.09;16120187;19;130848;-66
2024/01/07 21:19:32;;;;;;;4.35;1.40;;;;;;;21.41;24.25;102770.94;16115819;19;129793;-62
2024/01/07 21:24:54;;;;;;;8.27;1.75;;;;;;;21.39;24.40;102771.19;16117022;19;130495;-64
2024/01/07 21:30:17;;;;;;;4.70;1.20;;;;;;;21.38;24.63;102761.13;16110190;19;130247;-64
2024/01/07 21:35:39;;;;;;;5.38;1.20;;;;;;;21.33;24.46;102769.25;16122328;19;130945;-65
2024/01/07 21:41:04;;;;;;;3.38;1.10;;;;;;;21.22;24.36;102774.44;16114699;19;130001;-66
2024/01/07 21:46:26;;;;;;;;;;;;;;;21.03;24.14;102767.84;16114944;19;129814;-65
2024/01/07 21:51:51;;;;;;;6.68;1.40;;;;;;;20.93;24.66;102772.16;16108142;19;129955;-66
2024/01/07 21:57:16;;;;;;;7.50;1.30;;;;;;;20.79;24.70;102769.41;16104446;19;129841;-66
2024/01/07 22:02:38;;;;;;;7.40;1.40;;;;;;;20.65;24.80;102767.69;16108691;19;130000;-66
2024/01/07 22:08:00;;;;;;;1.83;1.20;;;;;;;20.50;24.95;102765.09;16107752;19;129813;-66
2024/01/07 22:13:22;;;;;;;2.22;1.10;;;;;;;20.35;24.85;102771.75;16109144;19;130582;-66
2024/01/07 22:18:44;;;;;;;4.53;1.27;;;;;;;20.21;24.62;102767.25;16103065;19;130504;-66
2024/01/07 22:24:10;;;;;;;2.40;1.17;;;;;;;20.05;24.67;102782.41;16108397;19;129841;-65
2024/01/07 22:29:32;;;;;;;2.35;1.27;;;;;;;19.91;25.13;102782.34;16108582;19;131385;-66
2024/01/07 22:34:54;;;;;;;1.83;1.20;;;;;;;19.77;24.96;102791.72;16108540;19;129351;-65
2024/01/07 22:40:18;;;;;;;6.63;2.28;;;;;;;19.63;25.10;102794.44;16106151;19;130062;-66
2024/01/07 22:45:40;;;;;;;5.57;1.30;;;;;;;19.52;24.88;102803.34;16110356;19;129673;-65
2024/01/07 22:51:02;;;;;;;2.13;1.17;;;;;;;19.40;25.03;102800.31;16104163;19;130429;-65
2024/01/07 22:56:24;;;;;;;2.28;1.40;;;;;;;19.33;25.24;102803.03;16105015;19;129873;-65
2024/01/07 23:01:47;;;;;;;3.78;1.52;;;;;;;19.24;25.21;102809.81;16106383;19;129498;-65
2024/01/07 23:07:09;;;;;;;2.17;1.30;;;;;;;19.16;25.25;102809.97;16106069;19;130454;-64
2024/01/07 23:12:31;;;;;;;3.30;1.20;;;;;;;19.07;25.18;102810.16;16103076;19;131569;-65
2024/01/07 23:17:53;;;;;;;2.17;1.40;;;;;;;19.01;25.13;102815.66;16101444;19;129387;-65
2024/01/07 23:23:15;;;;;;;2.95;1.55;;;;;;;18.91;25.48;102807.69;16107421;19;134147;-64
2024/01/07 23:28:37;;;;;;;2.83;1.33;;;;;;;18.82;25.12;102806.13;16105075;19;130434;-65
2024/01/07 23:33:59;;;;;;;1.73;1.35;;;;;;;18.74;25.57;102821.84;16097299;19;130756;-65
2024/01/07 23:39:22;;;;;;;1.83;1.23;;;;;;;18.67;25.48;102823.69;16117685;19;129639;-63
2024/01/07 23:44:44;;;;;;;3.38;1.70;;;;;;;18.56;25.33;102815.94;16118258;19;130511;-66
2024/01/07 23:50:06;;;;;;;4.28;1.80;;;;;;;18.52;25.62;102814.59;16113200;19;130924;-66
2024/01/07 23:55:28;;;;;;;4.32;1.83;;;;;;;18.45;25.47;102832.06;16117333;19;130222;-66
